sensor_id;sensor_type;location;lat;lon;timestamp;pressure;altitude;pressure_sealevel;temperature;humidity
58092;BME280;43896;48.178;11.578;2023-04-29T00:03:34;95529.53;;;12.04;80.15
58092;BME280;43896;48.178;11.578;2023-04-29T00:06:05;95522.88;;;12.08;79.73
58092;BME280;43896;48.178;11.578;2023-04-29T00:08:56;95478.41;;;11.82;79.00
58092;BME280;43896;48.178;11.578;2023-04-29T00:11:42;95570.84;;;12.35;80.17
58092;BME280;43896;48.178;11.578;2023-04-29T00:14:19;95475.94;;;11.80;79.57
58092;BME280;43896;48.178;11.578;2023-04-29T00:16:57;95505.16;;;11.71;81.07
58092;BME280;43896;48.178;11.578;2023-04-29T00:19:38;95575.81;;;12.30;80.28
58092;BME280;43896;48.178;11.578;2023-04-29T00:22:26;95511.63;;;11.91;80.07
58092;BME280;43896;48.178;11.578;2023-04-29T00:28:05;95526.00;;;12.12;79.74
58092;BME280;43896;48.178;11.578;2023-04-29T00:30:44;95560.34;;;12.27;80.52
58092;BME280;43896;48.178;11.578;2023-04-29T00:33:23;95529.31;;;12.14;80.11
58092;BME280;43896;48.178;11.578;2023-04-29T00:36:20;95498.28;;;11.61;81.73
58092;BME280;43896;48.178;11.578;2023-04-29T00:38:52;95504.88;;;11.89;80.39
58092;BME280;43896;48.178;11.578;2023-04-29T00:41:46;95545.75;;;12.16;80.40
58092;BME280;43896;48.178;11.578;2023-04-29T00:44:36;95462.47;;;11.75;79.73
58092;BME280;43896;48.178;11.578;2023-04-29T00:47:28;95550.44;;;12.29;79.77
58092;BME280;43896;48.178;11.578;2023-04-29T00:50:22;95487.22;;;11.97;79.74
58092;BME280;43896;48.178;11.578;2023-04-29T00:52:59;95461.56;;;11.91;80.05
58092;BME280;43896;48.178;11.578;2023-04-29T00:55:55;95459.44;;;11.87;79.78
58092;BME280;43896;48.178;11.578;2023-04-29T00:58:35;95482.19;;;12.11;79.86
58092;BME280;43896;48.178;11.578;2023-04-29T01:01:49;95512.94;;;12.18;80.35
58092;BME280;43896;48.178;11.578;2023-04-29T01:04:32;95499.59;;;12.20;80.05
58092;BME280;43896;48.178;11.578;2023-04-29T01:07:33;95518.44;;;12.32;80.12
58092;BME280;43896;48.178;11.578;2023-04-29T01:17:25;95555.66;;;12.60;80.32
58092;BME280;43896;48.178;11.578;2023-04-29T01:20:35;95521.91;;;12.32;81.15
58092;BME280;43896;48.178;11.578;2023-04-29T01:23:39;95491.09;;;12.10;80.56
58092;BME280;43896;48.178;11.578;2023-04-29T01:36:37;95471.19;;;12.07;80.64
58092;BME280;43896;48.178;11.578;2023-04-29T01:42:50;95545.44;;;12.57;80.47
58092;BME280;43896;48.178;11.578;2023-04-29T01:45:45;95524.19;;;12.35;80.76
58092;BME280;43896;48.178;11.578;2023-04-29T01:48:26;95457.97;;;11.84;81.50
58092;BME280;43896;48.178;11.578;2023-04-29T01:54:26;95521.03;;;12.40;81.20
58092;BME280;43896;48.178;11.578;2023-04-29T01:57:14;95435.31;;;11.98;80.81
58092;BME280;43896;48.178;11.578;2023-04-29T01:59:53;95480.94;;;12.22;81.58
58092;BME280;43896;48.178;11.578;2023-04-29T02:02:30;95495.53;;;12.32;81.18
58092;BME280;43896;48.178;11.578;2023-04-29T02:08:52;95459.84;;;12.22;81.00
58092;BME280;43896;48.178;11.578;2023-04-29T02:11:37;95460.59;;;12.15;80.91
58092;BME280;43896;48.178;11.578;2023-04-29T02:14:21;95505.38;;;12.38;81.30
58092;BME280;43896;48.178;11.578;2023-04-29T02:16:59;95445.06;;;11.97;81.09
58092;BME280;43896;48.178;11.578;2023-04-29T02:19:52;95459.75;;;12.15;81.30
58092;BME280;43896;48.178;11.578;2023-04-29T02:22:41;95545.56;;;12.64;81.42
58092;BME280;43896;48.178;11.578;2023-04-29T02:25:31;95471.59;;;12.19;81.66
58092;BME280;43896;48.178;11.578;2023-04-29T02:31:21;95488.75;;;12.38;81.18
58092;BME280;43896;48.178;11.578;2023-04-29T02:33:52;95505.78;;;12.50;81.52
58092;BME280;43896;48.178;11.578;2023-04-29T02:36:26;95496.94;;;12.43;81.46
58092;BME280;43896;48.178;11.578;2023-04-29T02:39:10;95509.69;;;12.54;81.12
58092;BME280;43896;48.178;11.578;2023-04-29T02:44:29;95546.31;;;12.72;82.22
58092;BME280;43896;48.178;11.578;2023-04-29T02:53:10;95458.19;;;12.06;81.82
58092;BME280;43896;48.178;11.578;2023-04-29T02:55:51;95492.38;;;12.37;81.84
58092;BME280;43896;48.178;11.578;2023-04-29T02:58:29;95460.66;;;12.07;81.30
58092;BME280;43896;48.178;11.578;2023-04-29T03:04:06;95551.44;;;12.51;82.80
58092;BME280;43896;48.178;11.578;2023-04-29T03:06:36;95509.00;;;12.37;82.46
58092;BME280;43896;48.178;11.578;2023-04-29T03:09:10;95469.47;;;12.14;82.40
58092;BME280;43896;48.178;11.578;2023-04-29T03:15:12;95565.91;;;12.55;84.13
58092;BME280;43896;48.178;11.578;2023-04-29T03:17:49;95545.03;;;12.22;84.13
58092;BME280;43896;48.178;11.578;2023-04-29T03:20:30;95556.25;;;12.47;84.66
58092;BME280;43896;48.178;11.578;2023-04-29T03:23:02;95456.59;;;11.96;83.79
58092;BME280;43896;48.178;11.578;2023-04-29T03:25:30;95569.34;;;12.79;82.95
58092;BME280;43896;48.178;11.578;2023-04-29T03:28:20;95559.34;;;12.74;83.17
58092;BME280;43896;48.178;11.578;2023-04-29T03:31:06;95559.41;;;12.81;82.94
58092;BME280;43896;48.178;11.578;2023-04-29T03:33:49;95498.44;;;12.37;83.33
58092;BME280;43896;48.178;11.578;2023-04-29T03:36:32;95556.94;;;12.64;83.65
58092;BME280;43896;48.178;11.578;2023-04-29T03:39:20;95518.16;;;12.27;84.39
58092;BME280;43896;48.178;11.578;2023-04-29T03:42:03;95498.34;;;12.31;83.53
58092;BME280;43896;48.178;11.578;2023-04-29T03:44:43;95559.63;;;12.56;83.74
58092;BME280;43896;48.178;11.578;2023-04-29T03:47:43;95504.28;;;12.48;82.82
58092;BME280;43896;48.178;11.578;2023-04-29T03:50:22;95560.88;;;12.83;82.57
58092;BME280;43896;48.178;11.578;2023-04-29T03:53:03;95508.88;;;12.54;82.38
58092;BME280;43896;48.178;11.578;2023-04-29T03:55:47;95512.25;;;12.25;83.54
58092;BME280;43896;48.178;11.578;2023-04-29T03:58:47;95497.06;;;12.27;83.49
58092;BME280;43896;48.178;11.578;2023-04-29T04:04:44;95499.88;;;12.25;83.56
58092;BME280;43896;48.178;11.578;2023-04-29T04:07:33;95481.97;;;12.21;82.79
58092;BME280;43896;48.178;11.578;2023-04-29T04:20:08;95514.28;;;12.37;82.69
58092;BME280;43896;48.178;11.578;2023-04-29T04:22:53;95538.47;;;12.41;82.73
58092;BME280;43896;48.178;11.578;2023-04-29T04:25:27;95522.84;;;12.16;83.54
58092;BME280;43896;48.178;11.578;2023-04-29T04:28:18;95553.44;;;12.49;82.88
58092;BME280;43896;48.178;11.578;2023-04-29T04:30:52;95528.22;;;12.46;82.51
58092;BME280;43896;48.178;11.578;2023-04-29T04:33:45;95553.84;;;12.61;82.51
58092;BME280;43896;48.178;11.578;2023-04-29T04:36:36;95507.09;;;12.31;82.36
58092;BME280;43896;48.178;11.578;2023-04-29T04:42:42;95587.38;;;12.90;82.09
58092;BME280;43896;48.178;11.578;2023-04-29T04:45:26;95593.41;;;12.99;81.99
58092;BME280;43896;48.178;11.578;2023-04-29T04:48:06;95505.03;;;12.42;81.69
58092;BME280;43896;48.178;11.578;2023-04-29T04:50:37;95559.03;;;12.69;82.06
58092;BME280;43896;48.178;11.578;2023-04-29T04:53:28;95497.47;;;11.92;83.38
58092;BME280;43896;48.178;11.578;2023-04-29T04:57:01;95517.88;;;11.98;84.72
58092;BME280;43896;48.178;11.578;2023-04-29T05:03:36;95557.44;;;12.45;84.06
58092;BME280;43896;48.178;11.578;2023-04-29T05:06:22;95509.84;;;12.38;83.08
58092;BME280;43896;48.178;11.578;2023-04-29T05:30:33;95526.16;;;12.94;81.88
58092;BME280;43896;48.178;11.578;2023-04-29T05:32:58;95564.22;;;13.15;81.86
58092;BME280;43896;48.178;11.578;2023-04-29T05:35:26;95553.19;;;13.11;81.94
58092;BME280;43896;48.178;11.578;2023-04-29T05:37:55;95582.44;;;13.25;81.69
58092;BME280;43896;48.178;11.578;2023-04-29T05:40:22;95618.25;;;13.42;82.59
58092;BME280;43896;48.178;11.578;2023-04-29T05:42:48;95630.50;;;13.58;82.17
58092;BME280;43896;48.178;11.578;2023-04-29T05:45:16;95582.59;;;13.08;82.82
58092;BME280;43896;48.178;11.578;2023-04-29T05:47:42;95610.63;;;13.47;82.79
58092;BME280;43896;48.178;11.578;2023-04-29T05:50:07;95606.63;;;13.52;82.10
58092;BME280;43896;48.178;11.578;2023-04-29T05:52:36;95585.47;;;13.37;81.68
58092;BME280;43896;48.178;11.578;2023-04-29T05:55:01;95649.53;;;13.68;82.01
58092;BME280;43896;48.178;11.578;2023-04-29T05:57:26;95584.50;;;13.38;81.93
58092;BME280;43896;48.178;11.578;2023-04-29T05:59:52;95614.38;;;13.53;81.24
58092;BME280;43896;48.178;11.578;2023-04-29T06:02:20;95590.59;;;13.38;82.13
58092;BME280;43896;48.178;11.578;2023-04-29T06:04:45;95583.59;;;13.07;82.37
58092;BME280;43896;48.178;11.578;2023-04-29T06:07:12;95644.53;;;13.59;83.28
58092;BME280;43896;48.178;11.578;2023-04-29T06:09:38;95607.16;;;13.47;82.14
58092;BME280;43896;48.178;11.578;2023-04-29T06:12:04;95574.97;;;13.28;82.39
58092;BME280;43896;48.178;11.578;2023-04-29T06:14:30;95664.41;;;13.84;81.72
58092;BME280;43896;48.178;11.578;2023-04-29T06:16:55;95624.09;;;13.53;81.57
58092;BME280;43896;48.178;11.578;2023-04-29T06:19:21;95615.78;;;13.41;81.83
58092;BME280;43896;48.178;11.578;2023-04-29T06:21:46;95609.34;;;13.43;81.81
58092;BME280;43896;48.178;11.578;2023-04-29T06:24:12;95624.09;;;13.53;82.18
58092;BME280;43896;48.178;11.578;2023-04-29T06:26:37;95580.59;;;13.10;82.80
58092;BME280;43896;48.178;11.578;2023-04-29T06:29:03;95630.75;;;13.48;81.93
58092;BME280;43896;48.178;11.578;2023-04-29T06:31:28;95627.47;;;13.46;82.75
58092;BME280;43896;48.178;11.578;2023-04-29T06:33:53;95607.97;;;13.47;81.44
58092;BME280;43896;48.178;11.578;2023-04-29T06:36:23;95649.81;;;13.59;81.62
58092;BME280;43896;48.178;11.578;2023-04-29T06:38:50;95662.00;;;13.60;83.05
58092;BME280;43896;48.178;11.578;2023-04-29T06:41:16;95610.41;;;12.81;84.82
58092;BME280;43896;48.178;11.578;2023-04-29T06:43:41;95651.97;;;13.40;84.13
58092;BME280;43896;48.178;11.578;2023-04-29T06:46:07;95610.06;;;13.52;81.54
58092;BME280;43896;48.178;11.578;2023-04-29T06:48:36;95623.84;;;13.77;80.99
58092;BME280;43896;48.178;11.578;2023-04-29T06:51:03;95633.66;;;13.83;80.50
58092;BME280;43896;48.178;11.578;2023-04-29T06:53:29;95598.59;;;13.75;79.54
58092;BME280;43896;48.178;11.578;2023-04-29T06:55:54;95604.22;;;13.86;79.50
58092;BME280;43896;48.178;11.578;2023-04-29T06:58:28;95662.06;;;14.26;79.91
58092;BME280;43896;48.178;11.578;2023-04-29T07:00:53;95619.84;;;14.18;79.53
58092;BME280;43896;48.178;11.578;2023-04-29T07:03:19;95662.34;;;14.68;77.46
58092;BME280;43896;48.178;11.578;2023-04-29T07:05:44;95638.50;;;14.46;77.79
58092;BME280;43896;48.178;11.578;2023-04-29T07:08:11;95642.44;;;14.35;78.53
58092;BME280;43896;48.178;11.578;2023-04-29T07:10:36;95625.81;;;13.75;81.83
58092;BME280;43896;48.178;11.578;2023-04-29T07:13:02;95623.28;;;14.33;78.86
58092;BME280;43896;48.178;11.578;2023-04-29T07:15:28;95590.78;;;14.39;77.10
58092;BME280;43896;48.178;11.578;2023-04-29T07:17:56;95633.31;;;14.38;78.36
58092;BME280;43896;48.178;11.578;2023-04-29T07:20:21;95661.00;;;14.05;81.04
58092;BME280;43896;48.178;11.578;2023-04-29T07:22:47;95641.00;;;14.54;77.45
58092;BME280;43896;48.178;11.578;2023-04-29T07:25:12;95647.34;;;14.75;76.16
58092;BME280;43896;48.178;11.578;2023-04-29T07:27:38;95658.97;;;14.74;75.39
58092;BME280;43896;48.178;11.578;2023-04-29T07:30:06;95619.13;;;14.60;75.04
58092;BME280;43896;48.178;11.578;2023-04-29T07:32:33;95619.34;;;14.44;77.35
58092;BME280;43896;48.178;11.578;2023-04-29T07:34:59;95638.09;;;14.64;77.12
58092;BME280;43896;48.178;11.578;2023-04-29T07:37:24;95618.38;;;14.67;76.23
58092;BME280;43896;48.178;11.578;2023-04-29T07:39:50;95601.31;;;14.54;76.18
58092;BME280;43896;48.178;11.578;2023-04-29T07:42:16;95590.09;;;14.95;72.89
58092;BME280;43896;48.178;11.578;2023-04-29T07:44:42;95646.50;;;15.17;74.44
58092;BME280;43896;48.178;11.578;2023-04-29T07:47:09;95624.03;;;14.85;72.71
58092;BME280;43896;48.178;11.578;2023-04-29T07:49:35;95626.31;;;14.67;75.34
58092;BME280;43896;48.178;11.578;2023-04-29T07:52:00;95653.91;;;15.22;72.10
58092;BME280;43896;48.178;11.578;2023-04-29T07:54:26;95635.84;;;15.32;73.09
58092;BME280;43896;48.178;11.578;2023-04-29T07:56:51;95650.38;;;14.93;74.24
58092;BME280;43896;48.178;11.578;2023-04-29T07:59:17;95653.28;;;14.77;76.28
58092;BME280;43896;48.178;11.578;2023-04-29T08:01:42;95642.03;;;14.53;76.05
58092;BME280;43896;48.178;11.578;2023-04-29T08:04:08;95650.88;;;14.45;77.03
58092;BME280;43896;48.178;11.578;2023-04-29T08:06:34;95650.50;;;15.07;73.77
58092;BME280;43896;48.178;11.578;2023-04-29T08:09:00;95605.53;;;14.63;75.41
58092;BME280;43896;48.178;11.578;2023-04-29T08:11:25;95631.72;;;15.02;73.17
58092;BME280;43896;48.178;11.578;2023-04-29T08:13:51;95693.34;;;16.30;69.14
58092;BME280;43896;48.178;11.578;2023-04-29T08:16:17;95644.66;;;16.03;68.21
58092;BME280;43896;48.178;11.578;2023-04-29T08:18:42;95679.84;;;16.80;68.08
58092;BME280;43896;48.178;11.578;2023-04-29T08:21:08;95649.38;;;16.07;70.21
58092;BME280;43896;48.178;11.578;2023-04-29T08:23:36;95610.84;;;16.18;67.83
58092;BME280;43896;48.178;11.578;2023-04-29T08:26:02;95661.09;;;17.08;67.49
58092;BME280;43896;48.178;11.578;2023-04-29T08:28:28;95625.91;;;16.04;68.63
58092;BME280;43896;48.178;11.578;2023-04-29T08:30:53;95694.53;;;16.82;66.75
58092;BME280;43896;48.178;11.578;2023-04-29T08:33:20;95638.63;;;16.91;65.28
58092;BME280;43896;48.178;11.578;2023-04-29T08:35:56;95685.22;;;17.67;65.21
58092;BME280;43896;48.178;11.578;2023-04-29T08:38:22;95634.94;;;17.12;65.12
58092;BME280;43896;48.178;11.578;2023-04-29T08:40:48;95633.31;;;16.97;63.20
58092;BME280;43896;48.178;11.578;2023-04-29T08:43:13;95643.84;;;16.57;67.22
58092;BME280;43896;48.178;11.578;2023-04-29T08:45:40;95693.44;;;17.38;66.90
58092;BME280;43896;48.178;11.578;2023-04-29T08:48:07;95693.31;;;16.78;67.33
58092;BME280;43896;48.178;11.578;2023-04-29T08:50:37;95616.50;;;16.83;65.16
58092;BME280;43896;48.178;11.578;2023-04-29T08:53:06;95654.34;;;17.12;64.93
58092;BME280;43896;48.178;11.578;2023-04-29T08:55:38;95672.00;;;16.03;67.67
58092;BME280;43896;48.178;11.578;2023-04-29T08:58:06;95614.38;;;15.55;70.04
58092;BME280;43896;48.178;11.578;2023-04-29T09:00:33;95624.59;;;15.93;70.04
58092;BME280;43896;48.178;11.578;2023-04-29T09:03:00;95642.53;;;17.21;63.40
58092;BME280;43896;48.178;11.578;2023-04-29T09:05:30;95638.41;;;17.46;65.15
58092;BME280;43896;48.178;11.578;2023-04-29T09:07:58;95644.53;;;17.66;66.17
58092;BME280;43896;48.178;11.578;2023-04-29T09:10:25;95693.81;;;17.82;65.57
58092;BME280;43896;48.178;11.578;2023-04-29T09:12:55;95694.66;;;17.09;67.11
58092;BME280;43896;48.178;11.578;2023-04-29T09:15:21;95646.56;;;16.84;68.29
58092;BME280;43896;48.178;11.578;2023-04-29T09:17:47;95700.78;;;17.70;65.35
58092;BME280;43896;48.178;11.578;2023-04-29T09:22:50;95641.00;;;18.06;62.31
58092;BME280;43896;48.178;11.578;2023-04-29T09:25:15;95679.09;;;17.79;61.00
58092;BME280;43896;48.178;11.578;2023-04-29T09:27:43;95653.97;;;17.35;63.82
58092;BME280;43896;48.178;11.578;2023-04-29T09:30:09;95667.38;;;18.14;60.91
58092;BME280;43896;48.178;11.578;2023-04-29T09:32:36;95632.78;;;18.14;58.32
58092;BME280;43896;48.178;11.578;2023-04-29T09:35:40;95674.50;;;19.10;57.03
58092;BME280;43896;48.178;11.578;2023-04-29T09:38:14;95677.91;;;19.49;55.61
58092;BME280;43896;48.178;11.578;2023-04-29T09:40:41;95677.34;;;19.66;54.50
58092;BME280;43896;48.178;11.578;2023-04-29T09:43:12;95669.69;;;19.76;54.16
58092;BME280;43896;48.178;11.578;2023-04-29T09:45:46;95666.63;;;19.73;52.21
58092;BME280;43896;48.178;11.578;2023-04-29T09:48:13;95665.69;;;19.85;50.60
58092;BME280;43896;48.178;11.578;2023-04-29T09:50:41;95648.50;;;20.00;50.83
58092;BME280;43896;48.178;11.578;2023-04-29T09:53:09;95656.31;;;20.01;49.54
58092;BME280;43896;48.178;11.578;2023-04-29T09:55:36;95680.19;;;20.15;49.83
58092;BME280;43896;48.178;11.578;2023-04-29T09:58:32;95666.53;;;20.23;52.50
58092;BME280;43896;48.178;11.578;2023-04-29T10:01:02;95678.78;;;20.31;52.43
58092;BME280;43896;48.178;11.578;2023-04-29T10:03:34;95680.25;;;18.17;58.77
58092;BME280;43896;48.178;11.578;2023-04-29T10:06:01;95688.03;;;18.12;62.52
58092;BME280;43896;48.178;11.578;2023-04-29T10:08:28;95684.09;;;18.80;60.91
58092;BME280;43896;48.178;11.578;2023-04-29T10:10:58;95686.47;;;17.64;63.73
58092;BME280;43896;48.178;11.578;2023-04-29T10:13:25;95665.41;;;17.56;64.90
58092;BME280;43896;48.178;11.578;2023-04-29T10:16:09;95691.78;;;17.51;63.94
58092;BME280;43896;48.178;11.578;2023-04-29T10:18:36;95689.47;;;18.21;62.21
58092;BME280;43896;48.178;11.578;2023-04-29T10:21:02;95668.31;;;18.85;60.31
58092;BME280;43896;48.178;11.578;2023-04-29T10:23:32;95644.69;;;18.95;60.17
58092;BME280;43896;48.178;11.578;2023-04-29T10:25:59;95670.94;;;19.74;59.74
58092;BME280;43896;48.178;11.578;2023-04-29T10:28:26;95641.38;;;19.00;59.67
58092;BME280;43896;48.178;11.578;2023-04-29T10:30:57;95689.22;;;19.95;57.38
58092;BME280;43896;48.178;11.578;2023-04-29T10:33:25;95678.78;;;20.12;55.56
58092;BME280;43896;48.178;11.578;2023-04-29T10:35:53;95666.19;;;19.51;54.88
58092;BME280;43896;48.178;11.578;2023-04-29T10:38:27;95685.59;;;19.39;56.88
58092;BME280;43896;48.178;11.578;2023-04-29T10:40:57;95667.13;;;20.07;54.93
58092;BME280;43896;48.178;11.578;2023-04-29T10:43:24;95676.81;;;19.82;55.92
58092;BME280;43896;48.178;11.578;2023-04-29T10:46:16;95662.03;;;20.23;55.54
58092;BME280;43896;48.178;11.578;2023-04-29T10:48:42;95629.34;;;19.16;56.58
58092;BME280;43896;48.178;11.578;2023-04-29T10:51:08;95619.25;;;18.61;55.14
58092;BME280;43896;48.178;11.578;2023-04-29T10:53:33;95681.47;;;18.21;58.05
58092;BME280;43896;48.178;11.578;2023-04-29T10:56:05;95665.31;;;18.61;59.92
58092;BME280;43896;48.178;11.578;2023-04-29T10:58:35;95681.63;;;18.40;58.63
58092;BME280;43896;48.178;11.578;2023-04-29T11:01:01;95677.00;;;19.05;57.82
58092;BME280;43896;48.178;11.578;2023-04-29T11:03:45;95675.34;;;19.86;56.87
58092;BME280;43896;48.178;11.578;2023-04-29T11:06:11;95662.31;;;19.72;55.86
58092;BME280;43896;48.178;11.578;2023-04-29T11:08:37;95663.13;;;20.16;54.54
58092;BME280;43896;48.178;11.578;2023-04-29T11:11:04;95643.00;;;19.76;52.55
58092;BME280;43896;48.178;11.578;2023-04-29T11:13:31;95670.69;;;20.37;53.28
58092;BME280;43896;48.178;11.578;2023-04-29T11:16:10;95649.63;;;21.08;48.13
58092;BME280;43896;48.178;11.578;2023-04-29T11:19:08;95665.97;;;21.00;51.60
58092;BME280;43896;48.178;11.578;2023-04-29T11:21:35;95661.69;;;20.32;52.70
58092;BME280;43896;48.178;11.578;2023-04-29T11:24:02;95650.66;;;19.41;52.99
58092;BME280;43896;48.178;11.578;2023-04-29T11:26:30;95674.50;;;18.20;54.50
58092;BME280;43896;48.178;11.578;2023-04-29T11:28:56;95668.38;;;18.13;56.07
58092;BME280;43896;48.178;11.578;2023-04-29T11:31:41;95602.59;;;17.61;54.60
58092;BME280;43896;48.178;11.578;2023-04-29T11:34:24;95676.66;;;17.51;55.44
58092;BME280;43896;48.178;11.578;2023-04-29T11:40:01;95666.34;;;18.08;53.17
58092;BME280;43896;48.178;11.578;2023-04-29T11:42:26;95659.94;;;19.38;51.39
58092;BME280;43896;48.178;11.578;2023-04-29T11:44:54;95671.97;;;19.47;50.10
58092;BME280;43896;48.178;11.578;2023-04-29T11:47:28;95680.44;;;18.22;52.58
58092;BME280;43896;48.178;11.578;2023-04-29T11:50:05;95675.81;;;17.91;51.97
58092;BME280;43896;48.178;11.578;2023-04-29T11:52:32;95634.34;;;17.16;53.10
58092;BME280;43896;48.178;11.578;2023-04-29T11:54:59;95633.72;;;16.94;54.32
58092;BME280;43896;48.178;11.578;2023-04-29T11:57:24;95655.41;;;17.31;52.31
58092;BME280;43896;48.178;11.578;2023-04-29T11:59:50;95651.31;;;17.55;52.40
58092;BME280;43896;48.178;11.578;2023-04-29T12:02:20;95679.81;;;18.27;52.69
58092;BME280;43896;48.178;11.578;2023-04-29T12:04:46;95619.88;;;18.56;51.20
58092;BME280;43896;48.178;11.578;2023-04-29T12:07:14;95683.97;;;18.61;50.65
58092;BME280;43896;48.178;11.578;2023-04-29T12:09:43;95672.97;;;17.52;50.87
58092;BME280;43896;48.178;11.578;2023-04-29T12:12:09;95647.56;;;17.83;50.02
58092;BME280;43896;48.178;11.578;2023-04-29T12:14:35;95622.78;;;18.48;49.93
58092;BME280;43896;48.178;11.578;2023-04-29T12:17:00;95644.13;;;18.80;48.05
58092;BME280;43896;48.178;11.578;2023-04-29T12:19:27;95629.97;;;18.86;48.54
58092;BME280;43896;48.178;11.578;2023-04-29T12:21:52;95669.47;;;18.57;49.37
58092;BME280;43896;48.178;11.578;2023-04-29T12:24:19;95640.31;;;18.17;49.79
58092;BME280;43896;48.178;11.578;2023-04-29T12:26:45;95680.34;;;18.49;51.09
58092;BME280;43896;48.178;11.578;2023-04-29T12:29:11;95631.56;;;18.55;50.78
58092;BME280;43896;48.178;11.578;2023-04-29T12:31:37;95622.00;;;18.41;49.26
58092;BME280;43896;48.178;11.578;2023-04-29T12:34:03;95653.00;;;18.67;49.83
58092;BME280;43896;48.178;11.578;2023-04-29T12:36:30;95634.13;;;18.36;48.73
58092;BME280;43896;48.178;11.578;2023-04-29T12:38:57;95696.97;;;18.37;50.26
58092;BME280;43896;48.178;11.578;2023-04-29T12:41:39;95690.75;;;19.34;49.79
58092;BME280;43896;48.178;11.578;2023-04-29T12:44:05;95665.88;;;19.15;48.12
58092;BME280;43896;48.178;11.578;2023-04-29T12:46:38;95683.53;;;18.71;49.73
58092;BME280;43896;48.178;11.578;2023-04-29T12:49:04;95647.91;;;19.29;47.05
58092;BME280;43896;48.178;11.578;2023-04-29T12:51:31;95666.28;;;20.06;47.52
58092;BME280;43896;48.178;11.578;2023-04-29T12:54:01;95677.56;;;19.64;45.95
58092;BME280;43896;48.178;11.578;2023-04-29T12:56:28;95634.28;;;18.42;47.84
58092;BME280;43896;48.178;11.578;2023-04-29T12:58:53;95687.47;;;19.32;53.42
58092;BME280;43896;48.178;11.578;2023-04-29T13:01:18;95687.63;;;19.12;50.87
58092;BME280;43896;48.178;11.578;2023-04-29T13:03:44;95674.94;;;19.58;53.56
58092;BME280;43896;48.178;11.578;2023-04-29T13:06:09;95676.69;;;20.14;48.71
58092;BME280;43896;48.178;11.578;2023-04-29T13:08:34;95670.63;;;20.26;48.38
58092;BME280;43896;48.178;11.578;2023-04-29T13:11:00;95662.50;;;20.51;49.61
58092;BME280;43896;48.178;11.578;2023-04-29T13:13:25;95682.28;;;20.80;46.28
58092;BME280;43896;48.178;11.578;2023-04-29T13:15:51;95687.00;;;20.11;45.73
58092;BME280;43896;48.178;11.578;2023-04-29T13:18:17;95691.91;;;20.32;48.81
58092;BME280;43896;48.178;11.578;2023-04-29T13:20:42;95691.44;;;20.54;48.21
58092;BME280;43896;48.178;11.578;2023-04-29T13:23:08;95689.59;;;20.54;46.40
58092;BME280;43896;48.178;11.578;2023-04-29T13:25:34;95660.09;;;21.10;44.19
58092;BME280;43896;48.178;11.578;2023-04-29T13:27:59;95684.41;;;20.22;45.16
58092;BME280;43896;48.178;11.578;2023-04-29T13:30:24;95651.91;;;20.07;45.21
58092;BME280;43896;48.178;11.578;2023-04-29T13:32:50;95683.28;;;20.49;45.83
58092;BME280;43896;48.178;11.578;2023-04-29T13:35:15;95691.34;;;20.60;46.24
58092;BME280;43896;48.178;11.578;2023-04-29T13:37:40;95687.88;;;20.78;44.71
58092;BME280;43896;48.178;11.578;2023-04-29T13:40:06;95687.63;;;20.80;44.57
58092;BME280;43896;48.178;11.578;2023-04-29T13:42:32;95681.66;;;20.29;45.60
58092;BME280;43896;48.178;11.578;2023-04-29T13:44:57;95686.84;;;20.05;45.65
58092;BME280;43896;48.178;11.578;2023-04-29T13:47:22;95685.66;;;20.38;43.14
58092;BME280;43896;48.178;11.578;2023-04-29T13:49:48;95692.34;;;20.48;43.57
58092;BME280;43896;48.178;11.578;2023-04-29T13:52:13;95678.84;;;20.05;42.99
58092;BME280;43896;48.178;11.578;2023-04-29T13:54:39;95674.31;;;20.43;43.86
58092;BME280;43896;48.178;11.578;2023-04-29T13:57:04;95690.25;;;21.29;39.88
58092;BME280;43896;48.178;11.578;2023-04-29T13:59:31;95689.22;;;20.14;44.67
58092;BME280;43896;48.178;11.578;2023-04-29T14:01:57;95689.22;;;20.14;44.79
58092;BME280;43896;48.178;11.578;2023-04-29T14:04:24;95692.50;;;19.72;46.02
58092;BME280;43896;48.178;11.578;2023-04-29T14:06:49;95681.31;;;19.82;46.54
58092;BME280;43896;48.178;11.578;2023-04-29T14:09:15;95696.47;;;19.88;47.16
58092;BME280;43896;48.178;11.578;2023-04-29T14:11:41;95695.06;;;19.60;47.41
58092;BME280;43896;48.178;11.578;2023-04-29T14:14:06;95688.78;;;19.48;49.09
58092;BME280;43896;48.178;11.578;2023-04-29T14:16:31;95693.91;;;20.18;47.87
58092;BME280;43896;48.178;11.578;2023-04-29T14:18:57;95691.94;;;19.89;46.55
58092;BME280;43896;48.178;11.578;2023-04-29T14:21:22;95690.03;;;19.96;46.27
58092;BME280;43896;48.178;11.578;2023-04-29T14:23:51;95692.84;;;19.82;48.20
58092;BME280;43896;48.178;11.578;2023-04-29T14:26:16;95680.78;;;19.48;46.94
58092;BME280;43896;48.178;11.578;2023-04-29T14:28:41;95706.06;;;19.14;47.63
58092;BME280;43896;48.178;11.578;2023-04-29T14:31:07;95709.09;;;19.24;49.27
58092;BME280;43896;48.178;11.578;2023-04-29T14:33:32;95709.88;;;18.92;47.34
58092;BME280;43896;48.178;11.578;2023-04-29T14:35:57;95692.56;;;18.11;48.93
58092;BME280;43896;48.178;11.578;2023-04-29T14:38:25;95705.06;;;19.08;48.40
58092;BME280;43896;48.178;11.578;2023-04-29T14:40:51;95703.91;;;19.29;47.60
58092;BME280;43896;48.178;11.578;2023-04-29T14:43:16;95704.56;;;19.24;47.86
58092;BME280;43896;48.178;11.578;2023-04-29T14:45:41;95688.75;;;18.91;46.76
58092;BME280;43896;48.178;11.578;2023-04-29T14:48:08;95717.56;;;19.07;48.16
58092;BME280;43896;48.178;11.578;2023-04-29T14:50:33;95712.38;;;18.81;46.80
58092;BME280;43896;48.178;11.578;2023-04-29T14:53:02;95734.91;;;19.23;46.84
58092;BME280;43896;48.178;11.578;2023-04-29T14:55:28;95732.50;;;19.47;46.66